sensor_id;sensor_type;location;lat;lon;timestamp;temperature;humidity
8664;DHT22;4369;47.842;13.096;2023-04-09T00:01:24;4.50;99.90
8664;DHT22;4369;47.842;13.096;2023-04-09T00:03:50;4.50;99.90
8664;DHT22;4369;47.842;13.096;2023-04-09T00:06:19;4.50;99.90
8664;DHT22;4369;47.842;13.096;2023-04-09T00:08:45;4.50;99.90
8664;DHT22;4369;47.842;13.096;2023-04-09T00:11:12;4.60;99.90
8664;DHT22;4369;47.842;13.096;2023-04-09T00:13:39;4.50;99.90
8664;DHT22;4369;47.842;13.096;2023-04-09T00:16:06;4.60;99.90
8664;DHT22;4369;47.842;13.096;2023-04-09T00:18:33;4.60;99.90
8664;DHT22;4369;47.842;13.096;2023-04-09T00:21:00;4.80;99.90
8664;DHT22;4369;47.842;13.096;2023-04-09T00:23:28;4.80;99.90
8664;DHT22;4369;47.842;13.096;2023-04-09T00:25:55;4.80;99.90
8664;DHT22;4369;47.842;13.096;2023-04-09T00:28:22;4.90;99.90
8664;DHT22;4369;47.842;13.096;2023-04-09T00:30:50;4.90;99.90
8664;DHT22;4369;47.842;13.096;2023-04-09T00:33:16;4.90;99.90
8664;DHT22;4369;47.842;13.096;2023-04-09T00:35:43;4.80;99.90
8664;DHT22;4369;47.842;13.096;2023-04-09T00:38:10;4.90;99.90
8664;DHT22;4369;47.842;13.096;2023-04-09T00:40:38;4.90;99.90
8664;DHT22;4369;47.842;13.096;2023-04-09T00:43:05;4.90;99.90
8664;DHT22;4369;47.842;13.096;2023-04-09T00:45:32;4.90;99.90
8664;DHT22;4369;47.842;13.096;2023-04-09T00:47:59;4.80;99.90
8664;DHT22;4369;47.842;13.096;2023-04-09T00:50:26;4.90;99.90
8664;DHT22;4369;47.842;13.096;2023-04-09T00:52:53;4.90;99.90
8664;DHT22;4369;47.842;13.096;2023-04-09T00:55:20;4.90;99.90
8664;DHT22;4369;47.842;13.096;2023-04-09T00:57:49;5.00;99.90
8664;DHT22;4369;47.842;13.096;2023-04-09T01:00:16;4.90;99.90
8664;DHT22;4369;47.842;13.096;2023-04-09T01:02:43;4.80;99.90
8664;DHT22;4369;47.842;13.096;2023-04-09T01:05:10;4.60;99.90
8664;DHT22;4369;47.842;13.096;2023-04-09T01:07:46;4.50;99.90
8664;DHT22;4369;47.842;13.096;2023-04-09T01:10:22;4.50;99.90
8664;DHT22;4369;47.842;13.096;2023-04-09T01:12:59;4.70;99.90
8664;DHT22;4369;47.842;13.096;2023-04-09T01:15:33;4.60;99.90
8664;DHT22;4369;47.842;13.096;2023-04-09T01:18:05;4.50;99.90
8664;DHT22;4369;47.842;13.096;2023-04-09T01:20:36;4.50;99.90
8664;DHT22;4369;47.842;13.096;2023-04-09T01:23:13;4.50;99.90
8664;DHT22;4369;47.842;13.096;2023-04-09T01:25:46;4.50;99.90
8664;DHT22;4369;47.842;13.096;2023-04-09T01:28:21;4.60;99.90
8664;DHT22;4369;47.842;13.096;2023-04-09T01:30:52;4.70;99.90
8664;DHT22;4369;47.842;13.096;2023-04-09T01:33:21;4.80;99.90
8664;DHT22;4369;47.842;13.096;2023-04-09T01:35:49;4.80;99.90
8664;DHT22;4369;47.842;13.096;2023-04-09T01:38:17;4.80;99.90
8664;DHT22;4369;47.842;13.096;2023-04-09T01:40:46;4.90;99.90
8664;DHT22;4369;47.842;13.096;2023-04-09T01:43:14;4.90;99.90
8664;DHT22;4369;47.842;13.096;2023-04-09T01:45:43;4.90;99.90
8664;DHT22;4369;47.842;13.096;2023-04-09T01:48:11;4.90;99.90
8664;DHT22;4369;47.842;13.096;2023-04-09T01:50:40;4.80;99.90
8664;DHT22;4369;47.842;13.096;2023-04-09T01:53:07;4.80;99.90
8664;DHT22;4369;47.842;13.096;2023-04-09T01:55:34;4.80;99.90
8664;DHT22;4369;47.842;13.096;2023-04-09T01:58:01;4.90;99.90
8664;DHT22;4369;47.842;13.096;2023-04-09T02:00:32;5.00;99.90
8664;DHT22;4369;47.842;13.096;2023-04-09T02:03:09;5.00;99.90
8664;DHT22;4369;47.842;13.096;2023-04-09T02:05:39;5.00;99.90
8664;DHT22;4369;47.842;13.096;2023-04-09T02:08:09;5.10;99.90
8664;DHT22;4369;47.842;13.096;2023-04-09T02:10:37;5.00;99.90
8664;DHT22;4369;47.842;13.096;2023-04-09T02:13:06;5.00;99.90
8664;DHT22;4369;47.842;13.096;2023-04-09T02:15:37;5.00;99.90
8664;DHT22;4369;47.842;13.096;2023-04-09T02:18:20;5.10;99.90
8664;DHT22;4369;47.842;13.096;2023-04-09T02:20:47;5.00;99.90
8664;DHT22;4369;47.842;13.096;2023-04-09T02:23:15;4.90;99.90
8664;DHT22;4369;47.842;13.096;2023-04-09T02:25:42;4.80;99.90
8664;DHT22;4369;47.842;13.096;2023-04-09T02:28:09;4.70;99.90
8664;DHT22;4369;47.842;13.096;2023-04-09T02:30:36;4.60;99.90
8664;DHT22;4369;47.842;13.096;2023-04-09T02:33:02;4.50;99.90
8664;DHT22;4369;47.842;13.096;2023-04-09T02:35:31;4.50;99.90
8664;DHT22;4369;47.842;13.096;2023-04-09T02:37:58;4.40;99.90
8664;DHT22;4369;47.842;13.096;2023-04-09T02:40:25;4.40;99.90
8664;DHT22;4369;47.842;13.096;2023-04-09T02:42:52;4.50;99.90
8664;DHT22;4369;47.842;13.096;2023-04-09T02:45:20;4.60;99.90
8664;DHT22;4369;47.842;13.096;2023-04-09T02:47:47;4.70;99.90
8664;DHT22;4369;47.842;13.096;2023-04-09T02:50:14;4.60;99.90
8664;DHT22;4369;47.842;13.096;2023-04-09T02:52:45;4.60;99.90
8664;DHT22;4369;47.842;13.096;2023-04-09T02:55:12;4.70;99.90
8664;DHT22;4369;47.842;13.096;2023-04-09T02:57:39;4.70;99.90
8664;DHT22;4369;47.842;13.096;2023-04-09T03:00:07;4.70;99.90
8664;DHT22;4369;47.842;13.096;2023-04-09T03:02:34;4.70;99.90
8664;DHT22;4369;47.842;13.096;2023-04-09T03:05:01;4.60;99.90
8664;DHT22;4369;47.842;13.096;2023-04-09T03:07:28;4.60;99.90
8664;DHT22;4369;47.842;13.096;2023-04-09T03:09:56;4.60;99.90
8664;DHT22;4369;47.842;13.096;2023-04-09T03:12:23;4.60;99.90
8664;DHT22;4369;47.842;13.096;2023-04-09T03:14:49;4.60;99.90
8664;DHT22;4369;47.842;13.096;2023-04-09T03:17:16;4.50;99.90
8664;DHT22;4369;47.842;13.096;2023-04-09T03:19:43;4.40;99.90
8664;DHT22;4369;47.842;13.096;2023-04-09T03:22:10;4.40;99.90
8664;DHT22;4369;47.842;13.096;2023-04-09T03:24:37;4.30;99.90
8664;DHT22;4369;47.842;13.096;2023-04-09T03:27:05;4.30;99.90
8664;DHT22;4369;47.842;13.096;2023-04-09T03:29:32;4.40;99.90
8664;DHT22;4369;47.842;13.096;2023-04-09T03:31:59;4.40;99.90
8664;DHT22;4369;47.842;13.096;2023-04-09T03:34:26;4.40;99.90
8664;DHT22;4369;47.842;13.096;2023-04-09T03:36:52;4.30;99.90
8664;DHT22;4369;47.842;13.096;2023-04-09T03:39:19;4.30;99.90
8664;DHT22;4369;47.842;13.096;2023-04-09T03:41:46;4.30;99.90
8664;DHT22;4369;47.842;13.096;2023-04-09T03:44:14;4.30;99.90
8664;DHT22;4369;47.842;13.096;2023-04-09T03:46:41;4.30;99.90
8664;DHT22;4369;47.842;13.096;2023-04-09T03:49:08;4.30;99.90
8664;DHT22;4369;47.842;13.096;2023-04-09T03:51:35;4.30;99.90
8664;DHT22;4369;47.842;13.096;2023-04-09T03:54:02;4.20;99.90
8664;DHT22;4369;47.842;13.096;2023-04-09T03:56:29;4.30;99.90
8664;DHT22;4369;47.842;13.096;2023-04-09T03:58:56;4.30;99.90
8664;DHT22;4369;47.842;13.096;2023-04-09T04:01:24;4.30;99.90
8664;DHT22;4369;47.842;13.096;2023-04-09T04:03:51;4.30;99.90
8664;DHT22;4369;47.842;13.096;2023-04-09T04:06:18;4.30;99.90
8664;DHT22;4369;47.842;13.096;2023-04-09T04:08:45;4.30;99.90
8664;DHT22;4369;47.842;13.096;2023-04-09T04:11:12;4.40;99.90
8664;DHT22;4369;47.842;13.096;2023-04-09T04:13:38;4.30;99.90
8664;DHT22;4369;47.842;13.096;2023-04-09T04:16:06;4.40;99.90
8664;DHT22;4369;47.842;13.096;2023-04-09T04:18:35;4.30;99.90
8664;DHT22;4369;47.842;13.096;2023-04-09T04:21:02;4.20;99.90
8664;DHT22;4369;47.842;13.096;2023-04-09T04:23:29;4.10;99.90
8664;DHT22;4369;47.842;13.096;2023-04-09T04:25:55;4.00;99.90
8664;DHT22;4369;47.842;13.096;2023-04-09T04:28:22;4.10;99.90
8664;DHT22;4369;47.842;13.096;2023-04-09T04:30:49;4.10;99.90
8664;DHT22;4369;47.842;13.096;2023-04-09T04:33:16;4.10;99.90
8664;DHT22;4369;47.842;13.096;2023-04-09T04:35:44;4.10;99.90
8664;DHT22;4369;47.842;13.096;2023-04-09T04:38:12;4.10;99.90
8664;DHT22;4369;47.842;13.096;2023-04-09T04:40:38;4.20;99.90
8664;DHT22;4369;47.842;13.096;2023-04-09T04:43:05;4.20;99.90
8664;DHT22;4369;47.842;13.096;2023-04-09T04:45:32;4.30;99.90
8664;DHT22;4369;47.842;13.096;2023-04-09T04:47:59;4.30;99.90
8664;DHT22;4369;47.842;13.096;2023-04-09T04:50:26;4.40;99.90
8664;DHT22;4369;47.842;13.096;2023-04-09T04:52:54;4.40;99.90
8664;DHT22;4369;47.842;13.096;2023-04-09T04:55:21;4.50;99.90
8664;DHT22;4369;47.842;13.096;2023-04-09T04:57:49;4.50;99.90
8664;DHT22;4369;47.842;13.096;2023-04-09T05:00:17;4.60;99.90
8664;DHT22;4369;47.842;13.096;2023-04-09T05:02:44;4.60;99.90
8664;DHT22;4369;47.842;13.096;2023-04-09T05:05:11;4.60;99.90
8664;DHT22;4369;47.842;13.096;2023-04-09T05:07:38;4.60;99.90
8664;DHT22;4369;47.842;13.096;2023-04-09T05:10:08;4.70;99.90
8664;DHT22;4369;47.842;13.096;2023-04-09T05:12:35;4.70;99.90
8664;DHT22;4369;47.842;13.096;2023-04-09T05:15:02;4.70;99.90
8664;DHT22;4369;47.842;13.096;2023-04-09T05:17:29;4.70;99.90
8664;DHT22;4369;47.842;13.096;2023-04-09T05:19:56;4.80;99.90
8664;DHT22;4369;47.842;13.096;2023-04-09T05:22:23;4.70;99.90
8664;DHT22;4369;47.842;13.096;2023-04-09T05:24:50;4.60;99.90
8664;DHT22;4369;47.842;13.096;2023-04-09T05:27:18;4.60;99.90
8664;DHT22;4369;47.842;13.096;2023-04-09T05:29:46;4.60;99.90
8664;DHT22;4369;47.842;13.096;2023-04-09T05:32:13;4.60;99.90
8664;DHT22;4369;47.842;13.096;2023-04-09T05:34:40;4.60;99.90
8664;DHT22;4369;47.842;13.096;2023-04-09T05:37:07;4.70;99.90
8664;DHT22;4369;47.842;13.096;2023-04-09T05:39:34;4.70;99.90
8664;DHT22;4369;47.842;13.096;2023-04-09T05:42:01;4.80;99.90
8664;DHT22;4369;47.842;13.096;2023-04-09T05:44:29;4.90;99.90
8664;DHT22;4369;47.842;13.096;2023-04-09T05:46:56;4.90;99.90
8664;DHT22;4369;47.842;13.096;2023-04-09T05:49:23;4.90;99.90
8664;DHT22;4369;47.842;13.096;2023-04-09T05:51:50;4.90;99.90
8664;DHT22;4369;47.842;13.096;2023-04-09T05:54:17;5.00;99.90
8664;DHT22;4369;47.842;13.096;2023-04-09T05:56:44;5.00;99.90
8664;DHT22;4369;47.842;13.096;2023-04-09T05:59:10;5.00;99.90
8664;DHT22;4369;47.842;13.096;2023-04-09T06:01:39;4.90;99.90
8664;DHT22;4369;47.842;13.096;2023-04-09T06:04:05;4.80;99.90
8664;DHT22;4369;47.842;13.096;2023-04-09T06:06:32;4.80;99.90
8664;DHT22;4369;47.842;13.096;2023-04-09T06:08:59;4.80;99.90
8664;DHT22;4369;47.842;13.096;2023-04-09T06:11:26;4.80;99.90
8664;DHT22;4369;47.842;13.096;2023-04-09T06:13:53;4.90;99.90
8664;DHT22;4369;47.842;13.096;2023-04-09T06:16:20;4.90;99.90
8664;DHT22;4369;47.842;13.096;2023-04-09T06:18:48;5.00;99.90
8664;DHT22;4369;47.842;13.096;2023-04-09T06:21:19;5.00;99.90
8664;DHT22;4369;47.842;13.096;2023-04-09T06:23:46;5.00;99.90
8664;DHT22;4369;47.842;13.096;2023-04-09T06:26:13;5.00;99.90
8664;DHT22;4369;47.842;13.096;2023-04-09T06:28:40;4.90;99.90
8664;DHT22;4369;47.842;13.096;2023-04-09T06:31:07;4.90;99.90
8664;DHT22;4369;47.842;13.096;2023-04-09T06:33:34;5.00;99.90
8664;DHT22;4369;47.842;13.096;2023-04-09T06:36:02;5.00;99.90
8664;DHT22;4369;47.842;13.096;2023-04-09T06:38:29;4.90;99.90
8664;DHT22;4369;47.842;13.096;2023-04-09T06:40:56;4.90;99.90
8664;DHT22;4369;47.842;13.096;2023-04-09T06:43:22;4.90;99.90
8664;DHT22;4369;47.842;13.096;2023-04-09T06:45:49;4.90;99.90
8664;DHT22;4369;47.842;13.096;2023-04-09T06:48:16;4.90;99.90
8664;DHT22;4369;47.842;13.096;2023-04-09T06:50:43;4.90;99.90
8664;DHT22;4369;47.842;13.096;2023-04-09T06:53:12;5.00;99.90
8664;DHT22;4369;47.842;13.096;2023-04-09T06:55:38;5.10;99.90
8664;DHT22;4369;47.842;13.096;2023-04-09T06:58:05;5.20;99.90
8664;DHT22;4369;47.842;13.096;2023-04-09T07:00:32;5.10;99.90
8664;DHT22;4369;47.842;13.096;2023-04-09T07:03:00;5.10;99.90
8664;DHT22;4369;47.842;13.096;2023-04-09T07:05:26;5.10;99.90
8664;DHT22;4369;47.842;13.096;2023-04-09T07:07:53;5.10;99.90
8664;DHT22;4369;47.842;13.096;2023-04-09T07:10:22;5.10;99.90
8664;DHT22;4369;47.842;13.096;2023-04-09T07:12:48;5.10;99.90
8664;DHT22;4369;47.842;13.096;2023-04-09T07:15:15;5.20;99.90
8664;DHT22;4369;47.842;13.096;2023-04-09T07:17:42;5.30;99.90
8664;DHT22;4369;47.842;13.096;2023-04-09T07:20:10;5.30;99.90
8664;DHT22;4369;47.842;13.096;2023-04-09T07:22:37;5.30;99.90
8664;DHT22;4369;47.842;13.096;2023-04-09T07:25:05;5.40;99.90
8664;DHT22;4369;47.842;13.096;2023-04-09T07:27:34;5.40;99.90
8664;DHT22;4369;47.842;13.096;2023-04-09T07:30:01;5.40;99.90
8664;DHT22;4369;47.842;13.096;2023-04-09T07:32:29;5.30;99.90
8664;DHT22;4369;47.842;13.096;2023-04-09T07:34:56;5.20;99.90
8664;DHT22;4369;47.842;13.096;2023-04-09T07:37:24;5.30;99.90
8664;DHT22;4369;47.842;13.096;2023-04-09T07:39:51;5.30;99.90
8664;DHT22;4369;47.842;13.096;2023-04-09T07:42:18;5.40;99.90
8664;DHT22;4369;47.842;13.096;2023-04-09T07:44:46;5.40;99.90
8664;DHT22;4369;47.842;13.096;2023-04-09T07:47:13;5.40;99.90
8664;DHT22;4369;47.842;13.096;2023-04-09T07:49:41;5.30;99.90
8664;DHT22;4369;47.842;13.096;2023-04-09T07:52:07;5.40;99.90
8664;DHT22;4369;47.842;13.096;2023-04-09T07:54:35;5.50;99.90
8664;DHT22;4369;47.842;13.096;2023-04-09T07:57:02;5.40;99.90
8664;DHT22;4369;47.842;13.096;2023-04-09T07:59:29;5.30;99.90
8664;DHT22;4369;47.842;13.096;2023-04-09T08:01:59;5.40;99.90
8664;DHT22;4369;47.842;13.096;2023-04-09T08:04:26;5.40;99.90
8664;DHT22;4369;47.842;13.096;2023-04-09T08:06:53;5.40;99.90
8664;DHT22;4369;47.842;13.096;2023-04-09T08:09:20;5.30;99.90
8664;DHT22;4369;47.842;13.096;2023-04-09T08:11:47;5.40;99.90
8664;DHT22;4369;47.842;13.096;2023-04-09T08:14:16;5.50;99.90
8664;DHT22;4369;47.842;13.096;2023-04-09T08:16:44;5.40;99.90
8664;DHT22;4369;47.842;13.096;2023-04-09T08:19:14;5.40;99.90
8664;DHT22;4369;47.842;13.096;2023-04-09T08:21:42;5.50;99.90
8664;DHT22;4369;47.842;13.096;2023-04-09T08:24:09;5.50;99.90
8664;DHT22;4369;47.842;13.096;2023-04-09T08:26:37;5.60;99.90
8664;DHT22;4369;47.842;13.096;2023-04-09T08:29:04;5.70;99.90
8664;DHT22;4369;47.842;13.096;2023-04-09T08:31:31;5.60;99.90
8664;DHT22;4369;47.842;13.096;2023-04-09T08:33:58;5.60;99.90
8664;DHT22;4369;47.842;13.096;2023-04-09T08:36:26;5.60;99.90
8664;DHT22;4369;47.842;13.096;2023-04-09T08:38:53;5.60;99.90
8664;DHT22;4369;47.842;13.096;2023-04-09T08:41:22;5.60;99.90
8664;DHT22;4369;47.842;13.096;2023-04-09T08:43:50;5.70;99.90
8664;DHT22;4369;47.842;13.096;2023-04-09T08:46:18;5.80;99.90
8664;DHT22;4369;47.842;13.096;2023-04-09T08:48:46;5.80;99.90
8664;DHT22;4369;47.842;13.096;2023-04-09T08:51:14;5.80;99.90
8664;DHT22;4369;47.842;13.096;2023-04-09T08:53:44;5.80;99.90
8664;DHT22;4369;47.842;13.096;2023-04-09T08:56:12;5.90;99.90
8664;DHT22;4369;47.842;13.096;2023-04-09T08:58:41;5.90;99.90
8664;DHT22;4369;47.842;13.096;2023-04-09T09:01:20;5.90;99.90
8664;DHT22;4369;47.842;13.096;2023-04-09T09:03:55;5.90;99.90
8664;DHT22;4369;47.842;13.096;2023-04-09T09:06:23;6.00;99.90
8664;DHT22;4369;47.842;13.096;2023-04-09T09:09:02;6.00;99.90
8664;DHT22;4369;47.842;13.096;2023-04-09T09:11:31;5.90;99.90
8664;DHT22;4369;47.842;13.096;2023-04-09T09:13:59;5.90;99.90
8664;DHT22;4369;47.842;13.096;2023-04-09T09:16:29;5.90;99.90
8664;DHT22;4369;47.842;13.096;2023-04-09T09:18:59;5.80;99.90
8664;DHT22;4369;47.842;13.096;2023-04-09T09:21:33;5.80;99.90
8664;DHT22;4369;47.842;13.096;2023-04-09T09:24:15;5.80;99.90
8664;DHT22;4369;47.842;13.096;2023-04-09T09:26:42;5.80;99.90
8664;DHT22;4369;47.842;13.096;2023-04-09T09:29:09;5.70;99.90
8664;DHT22;4369;47.842;13.096;2023-04-09T09:31:45;5.70;99.90
8664;DHT22;4369;47.842;13.096;2023-04-09T09:34:14;5.70;99.90
8664;DHT22;4369;47.842;13.096;2023-04-09T09:36:41;5.80;99.90
8664;DHT22;4369;47.842;13.096;2023-04-09T09:39:10;5.90;99.90
8664;DHT22;4369;47.842;13.096;2023-04-09T09:41:38;5.80;99.90
8664;DHT22;4369;47.842;13.096;2023-04-09T09:44:06;5.90;99.90
8664;DHT22;4369;47.842;13.096;2023-04-09T09:46:34;5.80;99.90
8664;DHT22;4369;47.842;13.096;2023-04-09T09:49:01;5.80;99.90
8664;DHT22;4369;47.842;13.096;2023-04-09T09:51:30;5.80;99.90
8664;DHT22;4369;47.842;13.096;2023-04-09T09:53:58;5.90;99.90
8664;DHT22;4369;47.842;13.096;2023-04-09T09:56:30;6.00;99.90
8664;DHT22;4369;47.842;13.096;2023-04-09T09:59:06;6.10;99.90
8664;DHT22;4369;47.842;13.096;2023-04-09T10:01:34;5.80;99.90
8664;DHT22;4369;47.842;13.096;2023-04-09T10:04:03;5.70;99.90
8664;DHT22;4369;47.842;13.096;2023-04-09T10:06:32;5.60;99.90
8664;DHT22;4369;47.842;13.096;2023-04-09T10:09:03;5.70;99.90
8664;DHT22;4369;47.842;13.096;2023-04-09T10:11:35;5.80;99.90
8664;DHT22;4369;47.842;13.096;2023-04-09T10:14:02;5.90;99.90
8664;DHT22;4369;47.842;13.096;2023-04-09T10:16:30;5.90;99.90
8664;DHT22;4369;47.842;13.096;2023-04-09T10:18:58;5.90;99.90
8664;DHT22;4369;47.842;13.096;2023-04-09T10:21:32;5.80;99.90
8664;DHT22;4369;47.842;13.096;2023-04-09T10:24:01;5.80;99.90
8664;DHT22;4369;47.842;13.096;2023-04-09T10:26:33;5.90;99.90
8664;DHT22;4369;47.842;13.096;2023-04-09T10:29:04;6.00;99.90
8664;DHT22;4369;47.842;13.096;2023-04-09T10:31:52;6.20;99.90
8664;DHT22;4369;47.842;13.096;2023-04-09T10:34:21;6.20;99.90
8664;DHT22;4369;47.842;13.096;2023-04-09T10:36:56;6.20;99.90
8664;DHT22;4369;47.842;13.096;2023-04-09T10:39:26;6.20;99.90
8664;DHT22;4369;47.842;13.096;2023-04-09T10:41:55;6.30;99.90
8664;DHT22;4369;47.842;13.096;2023-04-09T10:44:25;6.30;99.90
8664;DHT22;4369;47.842;13.096;2023-04-09T10:46:53;6.30;99.90
8664;DHT22;4369;47.842;13.096;2023-04-09T10:49:21;6.10;99.90
8664;DHT22;4369;47.842;13.096;2023-04-09T10:51:51;6.10;99.90
8664;DHT22;4369;47.842;13.096;2023-04-09T10:54:39;6.10;99.90
8664;DHT22;4369;47.842;13.096;2023-04-09T10:57:27;6.20;99.90
8664;DHT22;4369;47.842;13.096;2023-04-09T10:59:54;6.10;99.90
8664;DHT22;4369;47.842;13.096;2023-04-09T11:02:44;6.20;99.90
8664;DHT22;4369;47.842;13.096;2023-04-09T11:05:21;6.20;99.90
8664;DHT22;4369;47.842;13.096;2023-04-09T11:07:53;6.20;99.90
8664;DHT22;4369;47.842;13.096;2023-04-09T11:10:20;6.30;99.90
8664;DHT22;4369;47.842;13.096;2023-04-09T11:12:48;6.30;99.90
8664;DHT22;4369;47.842;13.096;2023-04-09T11:15:16;6.30;99.90
8664;DHT22;4369;47.842;13.096;2023-04-09T11:17:44;6.40;99.90
8664;DHT22;4369;47.842;13.096;2023-04-09T11:20:12;6.40;99.90
8664;DHT22;4369;47.842;13.096;2023-04-09T11:22:39;6.30;99.90
8664;DHT22;4369;47.842;13.096;2023-04-09T11:25:07;6.30;99.90
8664;DHT22;4369;47.842;13.096;2023-04-09T11:27:36;6.30;99.90
8664;DHT22;4369;47.842;13.096;2023-04-09T11:30:06;6.20;99.90
8664;DHT22;4369;47.842;13.096;2023-04-09T11:32:33;6.20;99.90
8664;DHT22;4369;47.842;13.096;2023-04-09T11:35:00;6.20;99.90
8664;DHT22;4369;47.842;13.096;2023-04-09T11:37:27;6.30;99.90
8664;DHT22;4369;47.842;13.096;2023-04-09T11:39:54;6.50;99.90
8664;DHT22;4369;47.842;13.096;2023-04-09T11:42:22;6.50;99.90
8664;DHT22;4369;47.842;13.096;2023-04-09T11:44:51;6.50;99.90
8664;DHT22;4369;47.842;13.096;2023-04-09T11:47:20;6.50;99.90
8664;DHT22;4369;47.842;13.096;2023-04-09T11:49:47;6.50;99.90
8664;DHT22;4369;47.842;13.096;2023-04-09T11:52:14;6.50;99.90
8664;DHT22;4369;47.842;13.096;2023-04-09T11:54:41;6.70;99.90
8664;DHT22;4369;47.842;13.096;2023-04-09T11:57:08;6.80;99.90
8664;DHT22;4369;47.842;13.096;2023-04-09T11:59:37;6.80;99.90
8664;DHT22;4369;47.842;13.096;2023-04-09T12:02:05;6.90;99.90
8664;DHT22;4369;47.842;13.096;2023-04-09T12:04:33;6.90;99.90
8664;DHT22;4369;47.842;13.096;2023-04-09T12:07:00;6.80;99.90
8664;DHT22;4369;47.842;13.096;2023-04-09T12:09:27;6.70;99.90
8664;DHT22;4369;47.842;13.096;2023-04-09T12:11:54;6.60;99.90
8664;DHT22;4369;47.842;13.096;2023-04-09T12:14:22;6.60;99.90
8664;DHT22;4369;47.842;13.096;2023-04-09T12:16:50;6.70;99.90
8664;DHT22;4369;47.842;13.096;2023-04-09T12:19:17;6.60;99.90
8664;DHT22;4369;47.842;13.096;2023-04-09T12:21:48;6.50;99.90
8664;DHT22;4369;47.842;13.096;2023-04-09T12:24:18;6.60;99.90
8664;DHT22;4369;47.842;13.096;2023-04-09T12:26:46;6.60;99.90
8664;DHT22;4369;47.842;13.096;2023-04-09T12:29:14;6.60;99.90
8664;DHT22;4369;47.842;13.096;2023-04-09T12:31:42;6.60;99.90
8664;DHT22;4369;47.842;13.096;2023-04-09T12:34:09;6.60;99.90
8664;DHT22;4369;47.842;13.096;2023-04-09T12:36:37;6.60;99.90
8664;DHT22;4369;47.842;13.096;2023-04-09T12:39:05;6.70;99.90
8664;DHT22;4369;47.842;13.096;2023-04-09T12:41:32;6.70;99.90
8664;DHT22;4369;47.842;13.096;2023-04-09T12:43:59;6.80;99.90
8664;DHT22;4369;47.842;13.096;2023-04-09T12:46:26;6.80;99.90
8664;DHT22;4369;47.842;13.096;2023-04-09T12:48:53;6.70;99.90
8664;DHT22;4369;47.842;13.096;2023-04-09T12:51:20;6.80;99.90
8664;DHT22;4369;47.842;13.096;2023-04-09T12:53:47;6.80;99.90
8664;DHT22;4369;47.842;13.096;2023-04-09T12:56:15;6.90;99.90
8664;DHT22;4369;47.842;13.096;2023-04-09T12:58:42;6.90;99.90
8664;DHT22;4369;47.842;13.096;2023-04-09T13:01:09;7.00;99.90
8664;DHT22;4369;47.842;13.096;2023-04-09T13:03:36;7.20;99.90
8664;DHT22;4369;47.842;13.096;2023-04-09T13:06:05;8.60;99.90
8664;DHT22;4369;47.842;13.096;2023-04-09T13:08:32;10.40;99.90
8664;DHT22;4369;47.842;13.096;2023-04-09T13:10:59;11.40;99.90
8664;DHT22;4369;47.842;13.096;2023-04-09T13:13:27;11.60;99.90
8664;DHT22;4369;47.842;13.096;2023-04-09T13:15:54;10.80;99.90
8664;DHT22;4369;47.842;13.096;2023-04-09T13:18:21;10.60;99.90
8664;DHT22;4369;47.842;13.096;2023-04-09T13:20:48;10.20;99.90
8664;DHT22;4369;47.842;13.096;2023-04-09T13:23:15;10.30;99.90
8664;DHT22;4369;47.842;13.096;2023-04-09T13:25:42;10.20;99.90
8664;DHT22;4369;47.842;13.096;2023-04-09T13:28:09;10.00;99.90
8664;DHT22;4369;47.842;13.096;2023-04-09T13:30:37;9.70;99.90
8664;DHT22;4369;47.842;13.096;2023-04-09T13:33:04;9.40;99.90
8664;DHT22;4369;47.842;13.096;2023-04-09T13:35:30;9.00;99.90
8664;DHT22;4369;47.842;13.096;2023-04-09T13:37:57;9.00;99.90
8664;DHT22;4369;47.842;13.096;2023-04-09T13:40:25;8.90;99.90
8664;DHT22;4369;47.842;13.096;2023-04-09T13:42:52;8.70;99.90
8664;DHT22;4369;47.842;13.096;2023-04-09T13:45:19;9.10;99.90
8664;DHT22;4369;47.842;13.096;2023-04-09T13:47:49;9.30;99.90
8664;DHT22;4369;47.842;13.096;2023-04-09T13:50:16;9.50;99.90
8664;DHT22;4369;47.842;13.096;2023-04-09T13:52:43;9.50;99.90
8664;DHT22;4369;47.842;13.096;2023-04-09T13:55:10;9.60;99.90
8664;DHT22;4369;47.842;13.096;2023-04-09T13:57:37;9.80;99.90
8664;DHT22;4369;47.842;13.096;2023-04-09T14:00:05;9.40;99.90
8664;DHT22;4369;47.842;13.096;2023-04-09T14:02:32;9.30;99.90
8664;DHT22;4369;47.842;13.096;2023-04-09T14:05:00;9.50;99.90
8664;DHT22;4369;47.842;13.096;2023-04-09T14:07:28;9.50;99.90
8664;DHT22;4369;47.842;13.096;2023-04-09T14:09:55;9.50;99.90
8664;DHT22;4369;47.842;13.096;2023-04-09T14:12:23;9.30;99.90
8664;DHT22;4369;47.842;13.096;2023-04-09T14:14:50;9.10;99.90
8664;DHT22;4369;47.842;13.096;2023-04-09T14:17:17;8.90;99.90
8664;DHT22;4369;47.842;13.096;2023-04-09T14:19:44;9.30;99.90
8664;DHT22;4369;47.842;13.096;2023-04-09T14:22:12;10.20;99.90
8664;DHT22;4369;47.842;13.096;2023-04-09T14:24:39;10.60;99.90
8664;DHT22;4369;47.842;13.096;2023-04-09T14:27:06;10.50;99.90
8664;DHT22;4369;47.842;13.096;2023-04-09T14:29:33;10.50;99.90
8664;DHT22;4369;47.842;13.096;2023-04-09T14:32:00;10.10;99.90
8664;DHT22;4369;47.842;13.096;2023-04-09T14:34:28;10.30;99.90
8664;DHT22;4369;47.842;13.096;2023-04-09T14:36:56;11.60;99.90
8664;DHT22;4369;47.842;13.096;2023-04-09T14:39:24;15.20;99.90
8664;DHT22;4369;47.842;13.096;2023-04-09T14:41:51;19.20;96.10
8664;DHT22;4369;47.842;13.096;2023-04-09T14:44:19;21.40;79.30
8664;DHT22;4369;47.842;13.096;2023-04-09T14:46:46;21.00;76.70
8664;DHT22;4369;47.842;13.096;2023-04-09T14:49:13;21.80;68.00
8664;DHT22;4369;47.842;13.096;2023-04-09T14:51:40;21.90;67.40
8664;DHT22;4369;47.842;13.096;2023-04-09T14:54:07;22.80;62.20
8664;DHT22;4369;47.842;13.096;2023-04-09T14:56:35;23.50;59.20
8664;DHT22;4369;47.842;13.096;2023-04-09T14:59:02;24.00;57.60
8664;DHT22;4369;47.842;13.096;2023-04-09T15:01:29;22.70;58.40
8664;DHT22;4369;47.842;13.096;2023-04-09T15:03:56;24.30;54.90
8664;DHT22;4369;47.842;13.096;2023-04-09T15:06:23;24.80;52.70
8664;DHT22;4369;47.842;13.096;2023-04-09T15:08:50;23.30;52.70
8664;DHT22;4369;47.842;13.096;2023-04-09T15:11:19;20.10;57.30
8664;DHT22;4369;47.842;13.096;2023-04-09T15:13:48;17.40;64.90
8664;DHT22;4369;47.842;13.096;2023-04-09T15:16:20;15.70;73.00
8664;DHT22;4369;47.842;13.096;2023-04-09T15:18:47;14.40;80.70
8664;DHT22;4369;47.842;13.096;2023-04-09T15:21:16;13.00;90.40
8664;DHT22;4369;47.842;13.096;2023-04-09T15:23:43;12.30;95.90
8664;DHT22;4369;47.842;13.096;2023-04-09T15:26:10;11.70;98.10
8664;DHT22;4369;47.842;13.096;2023-04-09T15:28:37;11.60;99.90
8664;DHT22;4369;47.842;13.096;2023-04-09T15:31:06;11.60;99.90
8664;DHT22;4369;47.842;13.096;2023-04-09T15:33:32;11.70;99.90
8664;DHT22;4369;47.842;13.096;2023-04-09T15:35:59;11.40;99.90
8664;DHT22;4369;47.842;13.096;2023-04-09T15:38:27;11.00;99.90
8664;DHT22;4369;47.842;13.096;2023-04-09T15:40:54;10.80;99.90
8664;DHT22;4369;47.842;13.096;2023-04-09T15:43:22;10.80;99.90
8664;DHT22;4369;47.842;13.096;2023-04-09T15:45:49;10.70;99.90
8664;DHT22;4369;47.842;13.096;2023-04-09T15:48:17;10.60;99.90
8664;DHT22;4369;47.842;13.096;2023-04-09T15:50:44;10.40;99.90
8664;DHT22;4369;47.842;13.096;2023-04-09T15:53:13;10.30;99.90
8664;DHT22;4369;47.842;13.096;2023-04-09T15:55:40;10.30;99.90
8664;DHT22;4369;47.842;13.096;2023-04-09T15:58:07;10.10;99.90
8664;DHT22;4369;47.842;13.096;2023-04-09T16:00:34;9.80;99.90
8664;DHT22;4369;47.842;13.096;2023-04-09T16:03:03;9.60;99.90
8664;DHT22;4369;47.842;13.096;2023-04-09T16:05:32;9.40;99.90